Wrecclesham, United Kingdom

01:32 PM GMT die 27o February, anno 2017 (GMT +0000)
Edward Road | | Change Station

Elev 361 ft 51.20 °N, 0.79 °W | Updated 1 minute ago

Plerumque Nubila
Plerumque Nubila
43.3 °F
Feels Like 41 °F
N
4.5
Ventus Variabilis Ventus from Auster
Gusts 6.0 mph

Hodie
High -- | Low -- °F
--% Chance of Precip.
Yesterday
High -- | Low -- °F
Precip. -- in
Pressio 29.09 in
Visibilitas 6.2 milia passuum
Clouds Few 1200 ft
Frigus Venti 41 °F
Frigus in quo Ros apparet 39 °F
Umor 85%
Rainfall 0.59 in
Snow Depth Not available.
6:52 AM 5:40 PM
New, 1% visible
METAR EGLF 271320Z 22011KT 9999 VCSH FEW012 06/04 Q0985
Pressio 29.09 in
Visibilitas 6.2 milia passuum
Clouds Few 1200 ft
Frigus Venti 41 °F
Frigus in quo Ros apparet 39 °F
Umor 85%
Rainfall 0.59 in
Snow Depth Not available.
6:52 AM 5:40 PM
New, 1% visible
METAR EGLF 271320Z 22011KT 9999 VCSH FEW012 06/04 Q0985

Get Your Daily Forecast Email!

Thanks for signing up!

Be on the lookout for a verification email in your inbox.

You'll start receiving the daily forecast at 8 AM.

×

10-Day Weather Forecast

×

Almanac

Astronomy

Feb. 27, 2017 Rise Set
Actual Time
Civil Twilight
Nautical Twilight
Astronomical Twilight
Moon
Length Of Visible Light
Length of Day
Tomorrow will be .
, % of the Moon is Illuminated

Today's Extremes

Country Highs Country Lows

Community

WunderPhotos

Upload Photos

1,962,540 photos uploaded!

WunderBlog® & News

Nearby

Air Quality

  Air Quality AQ Index Pollutant
Not available.

Snow Depth

Station Depth Elevation

Earthquake Activity

City Distance Mag. Time & Date
Minimum magnitude displayed is 2.5.

Coastal Water Temperatures

Locus Calor

Stations

Nearby Weather Stations

Station Location Temp Frigus Venti Frigus in quo Ros apparet Umor Ventus Precip. Elev Renovata Type